Airfield :







YOU CAN JOIN US ON...

 
LOGIN :

Register | Disclaimer

   EN    FR    IT 

 









Legend :    VFR   Marginal VFR   IFR   Intensive IFR   Very Intensive IFR
Visi :
Ceiling :
>= 8 km
>= 3000ft
5 to 8 km
1000 to 3000 ft
1500m to 5 km
500 to 1000 ft
800 to 1500m
200 to 500 ft
< 800m
< 200 ft
Symbols :   Thunderstorms  Fog  Heavy snow  Heavy precipitations  Wind > 20 kt







- Airport Elevation : 328 ft


KGFL - Floyd Bennett Memorial

CURRENT METAR :
  • 222353Z AUTO 23006KT 10SM CLR 22/13 A2987 RMK AO2 SLP115 T02170133 10278 20217 53006

EXPIRED METARs :
  • 222253Z AUTO 22005KT 10SM CLR 22/14 A2986 RMK AO2 SLP109 T02220144
  • 222153Z AUTO 24005KT 10SM CLR 23/15 A2985 RMK AO2 SLP108 T02330150
  • 222053Z AUTO VRB03KT 10SM CLR 24/14 A2986 RMK AO2 SLP108 T02440144 53003

TAF KGFL
Valid from the 23 at 00:00 until the 24 at 00:00 UTC


222347Z 2300/2324 VRB03KT P6SM SCT100 BKN250
FM230300 00000KT P6SM SCT250
TEMPO 2307/2311 3SM BR
FM231300 36004KT P6SM FEW050 SCT250
FM231600 02008KT P6SM BKN060
No reported NOTAMs for that airfield.



MET'MAP, your aeronautical weather chart ! - Copyright ORBIFLY December 2007 - Disclaimer

ORBIFLY MET'MAP TEAM :

Programming & Development : Alexandra Zaïnal
Concept & Development : Baudouin d'Aumeries
Co-Development & Prog : Marc-Olivier Méhu
Technical & hardware support : Manuel Goepfert

Contact : metmap@orbifly.com




SOURCES & CREDITS :

   NOAA